Nyk Olympus — 3EOS7 — position and weather

sailwx.info

Track history (hours):
 
Tides and Currents Weather Stations Pressure Air Temp Water Temp Dewpoint Dewpoint Depression Visibility Wind Speed Wind Dir Waves Ship Positions

Nyk Olympus

Last reported at 2015-Apr-30 18:16 UTC. Time now 2015-May-05 22:22 UTC.
Position N 31°28' E 032°19'.

Length 335 m; draft 14 m.

Type: Other ship. MMSI: 372478000.

Date/timePositionNaut miles runAvg speedWind from/ knotsBaromVisibWave heightAir tempDewpointWater temp
2015-Apr-30 18:16N 31°28' E 032°19'0 0.0
2015-Apr-30 15:28N 31°28' E 032°18'0 0.0
2015-Apr-30 14:25N 31°28' E 032°18'0 0.0
2015-Apr-30 13:19N 31°28' E 032°19'0 0.0
2015-Apr-30 12:31N 31°28' E 032°19'0 0.1
2015-Apr-30 11:33N 31°28' E 032°18'3712.4
2015-Apr-30 08:33N 31°50' E 031°43'7216.0
2015-Apr-30 04:03N 32°09' E 030°22'14815.1
2015-Apr-29 18:15N 32°53' E 027°35'62915.1
2015-Apr-28 00:28N 35°52' E 015°24'1715.1
2015-Apr-27 23:21N 35°58' E 015°05'1214.8
2015-Apr-27 22:33N 36°03' E 014°51'1514.8
2015-Apr-27 21:33N 36°09' E 014°34'1514.9
2015-Apr-27 20:33N 36°14' E 014°17'1514.9
2015-Apr-27 19:33N 36°19' E 013°59'1514.8
2015-Apr-27 18:33N 36°24' E 013°42'1514.5
2015-Apr-27 17:33N 36°29' E 013°25'28214.8
2015-Apr-26 22:31N 37°18' E 007°38'29715.6
2015-Apr-26 03:28N 36°50' E 001°27'4317.8
2015-Apr-26 01:04N 36°43' E 000°34'1116.9
2015-Apr-26 00:24N 36°42' E 000°20'1516.8
2015-Apr-25 23:32N 36°39' E 000°02'2416.5
2015-Apr-25 22:05N 36°36' W 000°27'815.9
2015-Apr-25 21:33N 36°35' W 000°37'1816.8
2015-Apr-25 20:28N 36°32' W 000°60'1516.6
2015-Apr-25 19:32N 36°30' W 001°19'1616.5
2015-Apr-25 18:33N 36°27' W 001°39'2216.3
2015-Apr-25 17:14N 36°22' W 002°05'1816.3
2015-Apr-25 16:09N 36°19' W 002°26'915.6
2015-Apr-25 15:33N 36°18' W 002°38'1615.7
2015-Apr-25 14:33N 36°15' W 002°57'1615.8
2015-Apr-25 13:33N 36°13' W 003°16'1615.8
2015-Apr-25 12:33N 36°11' W 003°36'8316.6
2015-Apr-25 07:33N 35°59' W 005°17'23914.5
2015-Apr-24 15:05N 37°40' W 009°48'915.9
2015-Apr-24 14:31N 37°48' W 009°51'1616.3
2015-Apr-24 13:33N 38°04' W 009°55'1916.7
2015-Apr-24 12:25N 38°22' W 010°01'1416.7
2015-Apr-24 11:33N 38°37' W 010°05'1716.8
2015-Apr-24 10:33N 38°53' W 010°07'1717.0
2015-Apr-24 09:33N 39°10' W 010°07'1616.1
2015-Apr-24 08:33N 39°26' W 010°07'69015.3
2015-Apr-22 11:24N 49°52' W 003°17'1715.2
2015-Apr-22 10:15N 49°59' W 002°52'1014.2
2015-Apr-22 09:33N 50°01' W 002°37'1414.4
2015-Apr-22 08:33N 50°02' W 002°14'1514.9
2015-Apr-22 07:33N 49°57' W 001°52'1716.7
2015-Apr-22 06:33N 49°52' W 001°27'1918.7
2015-Apr-22 05:33N 49°46' W 001°00'1918.8
2015-Apr-22 04:33N 49°38' W 000°34'1817.9
2015-Apr-22 03:33N 49°32' W 000°08'1111.2
2015-Apr-22 02:32N 49°28' E 000°08'0 0.4
2015-Apr-22 01:32N 49°28' E 000°09'0 0.0
2015-Apr-22 00:32N 49°28' E 000°09'0 0.0
2015-Apr-21 23:32N 49°28' E 000°09'0 0.0
2015-Apr-21 22:32N 49°28' E 000°09'0 0.0
2015-Apr-21 21:32N 49°28' E 000°09'0 0.0
2015-Apr-21 20:32N 49°28' E 000°09'0 0.0
2015-Apr-21 19:32N 49°28' E 000°09'0 0.0
2015-Apr-21 18:32N 49°28' E 000°09'0 0.0
2015-Apr-21 17:32N 49°28' E 000°09'0 0.0
2015-Apr-21 16:32N 49°28' E 000°09'0 0.0
2015-Apr-21 15:32N 49°28' E 000°09'0 0.0
2015-Apr-21 14:32N 49°28' E 000°09'0 0.0
2015-Apr-21 13:32N 49°28' E 000°09'0 0.0
2015-Apr-21 12:32N 49°28' E 000°09'0 0.0
2015-Apr-21 11:32N 49°28' E 000°09'0 0.0
2015-Apr-21 10:32N 49°28' E 000°09'0 0.0
2015-Apr-21 09:32N 49°28' E 000°09'0 0.0
2015-Apr-21 08:32N 49°28' E 000°09'0 0.0
2015-Apr-21 07:32N 49°28' E 000°09'0 0.0
2015-Apr-21 06:32N 49°28' E 000°09'0 0.0
2015-Apr-21 05:32N 49°28' E 000°09'0 0.0
2015-Apr-21 04:32N 49°28' E 000°09'0 0.0
2015-Apr-21 03:32N 49°28' E 000°09'0 0.0
2015-Apr-21 02:32N 49°28' E 000°09'0 0.0
2015-Apr-21 01:29N 49°28' E 000°09'0 0.0
2015-Apr-21 00:32N 49°28' E 000°09'0 0.0
2015-Apr-20 23:32N 49°28' E 000°09'0 0.0
2015-Apr-20 22:32N 49°28' E 000°09'0 0.0
2015-Apr-20 21:32N 49°28' E 000°09'0 0.0
2015-Apr-20 20:32N 49°28' E 000°09'0 0.3
2015-Apr-20 19:33N 49°27' E 000°09'7 6.8
2015-Apr-20 18:33N 49°30' W 000°00'  
Track history (hours):
 
Tides and Currents Weather Stations Pressure Air Temp Water Temp Dewpoint Dewpoint Depression Visibility Wind Speed Wind Dir Waves Ship Positions

Nyk Olympus

Last reported at 2015-Apr-30 18:16 UTC. Time now 2015-May-05 22:22 UTC.
Position N 31°28' E 032°19'.

Length 335 m; draft 14 m.

Type: Other ship. MMSI: 372478000.

Date/timePositionNaut miles runAvg speedWind from/ knotsBaromVisibWave heightAir tempDewpointWater temp
2015-Apr-30 18:16N 31°28' E 032°19'0 0.0
2015-Apr-30 15:28N 31°28' E 032°18'0 0.0
2015-Apr-30 14:25N 31°28' E 032°18'0 0.0
2015-Apr-30 13:19N 31°28' E 032°19'0 0.0
2015-Apr-30 12:31N 31°28' E 032°19'0 0.1
2015-Apr-30 11:33N 31°28' E 032°18'3712.4
2015-Apr-30 08:33N 31°50' E 031°43'7216.0
2015-Apr-30 04:03N 32°09' E 030°22'14815.1
2015-Apr-29 18:15N 32°53' E 027°35'62915.1
2015-Apr-28 00:28N 35°52' E 015°24'1715.1
2015-Apr-27 23:21N 35°58' E 015°05'1214.8
2015-Apr-27 22:33N 36°03' E 014°51'1514.8
2015-Apr-27 21:33N 36°09' E 014°34'1514.9
2015-Apr-27 20:33N 36°14' E 014°17'1514.9
2015-Apr-27 19:33N 36°19' E 013°59'1514.8
2015-Apr-27 18:33N 36°24' E 013°42'1514.5
2015-Apr-27 17:33N 36°29' E 013°25'28214.8
2015-Apr-26 22:31N 37°18' E 007°38'29715.6
2015-Apr-26 03:28N 36°50' E 001°27'4317.8
2015-Apr-26 01:04N 36°43' E 000°34'1116.9
2015-Apr-26 00:24N 36°42' E 000°20'1516.8
2015-Apr-25 23:32N 36°39' E 000°02'2416.5
2015-Apr-25 22:05N 36°36' W 000°27'815.9
2015-Apr-25 21:33N 36°35' W 000°37'1816.8
2015-Apr-25 20:28N 36°32' W 000°60'1516.6
2015-Apr-25 19:32N 36°30' W 001°19'1616.5
2015-Apr-25 18:33N 36°27' W 001°39'2216.3
2015-Apr-25 17:14N 36°22' W 002°05'1816.3
2015-Apr-25 16:09N 36°19' W 002°26'915.6
2015-Apr-25 15:33N 36°18' W 002°38'1615.7
2015-Apr-25 14:33N 36°15' W 002°57'1615.8
2015-Apr-25 13:33N 36°13' W 003°16'1615.8
2015-Apr-25 12:33N 36°11' W 003°36'8316.6
2015-Apr-25 07:33N 35°59' W 005°17'23914.5
2015-Apr-24 15:05N 37°40' W 009°48'915.9
2015-Apr-24 14:31N 37°48' W 009°51'1616.3
2015-Apr-24 13:33N 38°04' W 009°55'1916.7
2015-Apr-24 12:25N 38°22' W 010°01'1416.7
2015-Apr-24 11:33N 38°37' W 010°05'1716.8
2015-Apr-24 10:33N 38°53' W 010°07'1717.0
2015-Apr-24 09:33N 39°10' W 010°07'1616.1
2015-Apr-24 08:33N 39°26' W 010°07'69015.3
2015-Apr-22 11:24N 49°52' W 003°17'1715.2
2015-Apr-22 10:15N 49°59' W 002°52'1014.2
2015-Apr-22 09:33N 50°01' W 002°37'1414.4
2015-Apr-22 08:33N 50°02' W 002°14'1514.9
2015-Apr-22 07:33N 49°57' W 001°52'1716.7
2015-Apr-22 06:33N 49°52' W 001°27'1918.7
2015-Apr-22 05:33N 49°46' W 001°00'1918.8
2015-Apr-22 04:33N 49°38' W 000°34'1817.9
2015-Apr-22 03:33N 49°32' W 000°08'1111.2
2015-Apr-22 02:32N 49°28' E 000°08'0 0.4
2015-Apr-22 01:32N 49°28' E 000°09'0 0.0
2015-Apr-22 00:32N 49°28' E 000°09'0 0.0
2015-Apr-21 23:32N 49°28' E 000°09'0 0.0
2015-Apr-21 22:32N 49°28' E 000°09'0 0.0
2015-Apr-21 21:32N 49°28' E 000°09'0 0.0
2015-Apr-21 20:32N 49°28' E 000°09'0 0.0
2015-Apr-21 19:32N 49°28' E 000°09'0 0.0
2015-Apr-21 18:32N 49°28' E 000°09'0 0.0
2015-Apr-21 17:32N 49°28' E 000°09'0 0.0
2015-Apr-21 16:32N 49°28' E 000°09'0 0.0
2015-Apr-21 15:32N 49°28' E 000°09'0 0.0
2015-Apr-21 14:32N 49°28' E 000°09'0 0.0
2015-Apr-21 13:32N 49°28' E 000°09'0 0.0
2015-Apr-21 12:32N 49°28' E 000°09'0 0.0
2015-Apr-21 11:32N 49°28' E 000°09'0 0.0
2015-Apr-21 10:32N 49°28' E 000°09'0 0.0
2015-Apr-21 09:32N 49°28' E 000°09'0 0.0
2015-Apr-21 08:32N 49°28' E 000°09'0 0.0
2015-Apr-21 07:32N 49°28' E 000°09'0 0.0
2015-Apr-21 06:32N 49°28' E 000°09'0 0.0
2015-Apr-21 05:32N 49°28' E 000°09'0 0.0
2015-Apr-21 04:32N 49°28' E 000°09'0 0.0
2015-Apr-21 03:32N 49°28' E 000°09'0 0.0
2015-Apr-21 02:32N 49°28' E 000°09'0 0.0
2015-Apr-21 01:29N 49°28' E 000°09'0 0.0
2015-Apr-21 00:32N 49°28' E 000°09'0 0.0
2015-Apr-20 23:32N 49°28' E 000°09'0 0.0
2015-Apr-20 22:32N 49°28' E 000°09'0 0.0
2015-Apr-20 21:32N 49°28' E 000°09'0 0.0
2015-Apr-20 20:32N 49°28' E 000°09'0 0.3
2015-Apr-20 19:33N 49°27' E 000°09'7 6.8
2015-Apr-20 18:33N 49°30' W 000°00'  

Dump ship's entire track history